createdAt,value
2023-11-08T00:00:12.520Z,2.00
2023-11-08T00:00:35.571Z,1.98
2023-11-08T00:00:58.464Z,1.90
2023-11-08T00:01:24.741Z,2.03
2023-11-08T00:01:48.449Z,2.53
2023-11-08T00:02:13.492Z,2.17
2023-11-08T00:02:36.807Z,2.17
2023-11-08T00:03:01.784Z,2.10
2023-11-08T00:03:24.818Z,2.10
2023-11-08T00:03:47.841Z,2.05
2023-11-08T00:04:11.286Z,2.08
2023-11-08T00:04:34.187Z,2.08
2023-11-08T00:04:56.923Z,2.20
2023-11-08T00:05:22.830Z,2.28
2023-11-08T00:05:45.864Z,2.25
2023-11-08T00:06:09.944Z,2.40
2023-11-08T00:06:34.541Z,2.05
2023-11-08T00:06:57.882Z,2.53
2023-11-08T00:07:20.706Z,2.72
2023-11-08T00:07:43.526Z,2.90
2023-11-08T00:08:08.263Z,2.75
2023-11-08T00:08:31.054Z,2.75
2023-11-08T00:08:53.825Z,2.60
2023-11-08T00:09:16.676Z,2.83
2023-11-08T00:09:39.608Z,2.85
2023-11-08T00:10:02.323Z,2.63
2023-11-08T00:10:25.169Z,2.53
2023-11-08T00:10:48.325Z,2.40
2023-11-08T00:11:11.100Z,2.30
2023-11-08T00:11:35.309Z,2.17
2023-11-08T00:11:59.909Z,2.38
2023-11-08T00:12:22.746Z,2.35
2023-11-08T00:12:45.544Z,2.20
2023-11-08T00:13:10.846Z,2.20
2023-11-08T00:13:36.275Z,2.00
2023-11-08T00:13:59.081Z,2.28
2023-11-08T00:14:22.609Z,2.33
2023-11-08T00:14:48.408Z,2.13
2023-11-08T00:15:12.883Z,2.15
2023-11-08T00:15:35.704Z,2.40
2023-11-08T00:16:00.587Z,2.30
2023-11-08T00:16:23.911Z,2.10
2023-11-08T00:16:46.990Z,2.20
2023-11-08T00:17:10.358Z,2.15
2023-11-08T00:17:33.278Z,2.13
2023-11-08T00:17:56.141Z,1.98
2023-11-08T00:18:19.132Z,2.00
2023-11-08T00:18:42.239Z,2.00
2023-11-08T00:19:09.174Z,2.00
2023-11-08T00:19:32.122Z,2.03
2023-11-08T00:19:56.062Z,2.20
2023-11-08T00:20:18.809Z,2.20
2023-11-08T00:20:41.626Z,2.10
2023-11-08T00:21:05.491Z,1.90
2023-11-08T00:21:33.635Z,2.42
2023-11-08T00:22:00.051Z,2.10
2023-11-08T00:22:23.657Z,2.10
2023-11-08T00:22:46.376Z,2.13
2023-11-08T00:23:09.164Z,2.17
2023-11-08T00:23:31.982Z,1.80
2023-11-08T00:23:54.765Z,2.28
2023-11-08T00:24:18.143Z,2.08
2023-11-08T00:24:41.016Z,2.00
2023-11-08T00:25:03.959Z,2.20
2023-11-08T00:25:29.255Z,2.22
2023-11-08T00:25:52.038Z,1.98
2023-11-08T00:26:17.333Z,2.20
2023-11-08T00:26:41.500Z,2.25
2023-11-08T00:27:07.017Z,1.95
2023-11-08T00:27:31.298Z,2.00
2023-11-08T00:27:57.020Z,2.25
2023-11-08T00:28:19.706Z,2.22
2023-11-08T00:28:42.433Z,1.90
2023-11-08T00:29:05.323Z,1.98
2023-11-08T00:29:29.427Z,2.10
2023-11-08T00:29:52.323Z,1.95
2023-11-08T00:30:15.446Z,2.08
2023-11-08T00:30:38.291Z,2.00
2023-11-08T00:31:03.015Z,2.00
2023-11-08T00:31:25.799Z,2.20
2023-11-08T00:31:49.327Z,2.33
2023-11-08T00:32:12.094Z,2.30
2023-11-08T00:32:37.054Z,2.15
2023-11-08T00:32:59.919Z,2.33
2023-11-08T00:33:25.752Z,2.50
2023-11-08T00:33:48.618Z,2.70
2023-11-08T00:34:14.323Z,2.35
2023-11-08T00:34:39.687Z,2.03
2023-11-08T00:35:02.535Z,2.42
2023-11-08T00:35:27.584Z,2.30
2023-11-08T00:35:50.397Z,2.20
2023-11-08T00:36:13.304Z,2.20
2023-11-08T00:36:36.426Z,2.30
2023-11-08T00:36:59.255Z,2.30
2023-11-08T00:37:22.865Z,2.40
2023-11-08T00:37:47.991Z,2.22
2023-11-08T00:38:10.690Z,2.45
2023-11-08T00:38:33.485Z,2.80
2023-11-08T00:38:58.488Z,2.50
2023-11-08T00:39:21.288Z,2.30
2023-11-08T00:39:45.615Z,2.10
2023-11-08T00:40:10.448Z,1.92
2023-11-08T00:40:33.328Z,2.65
2023-11-08T00:41:01.095Z,2.70
2023-11-08T00:41:23.847Z,2.58
2023-11-08T00:41:50.352Z,2.63
2023-11-08T00:42:13.179Z,2.30
2023-11-08T00:42:36.082Z,2.50
2023-11-08T00:43:02.082Z,2.70
2023-11-08T00:43:25.088Z,2.60
2023-11-08T00:43:51.038Z,2.38
2023-11-08T00:44:14.344Z,2.40
2023-11-08T00:44:37.670Z,2.60
2023-11-08T00:45:00.532Z,2.40
2023-11-08T00:45:23.396Z,2.50
2023-11-08T00:45:46.222Z,2.70
2023-11-08T00:46:09.497Z,2.40
2023-11-08T00:46:32.314Z,2.70
2023-11-08T00:46:55.593Z,2.70
2023-11-08T00:47:19.027Z,2.50
2023-11-08T00:47:45.153Z,2.75
2023-11-08T00:48:08.402Z,2.53
2023-11-08T00:48:32.133Z,2.70
2023-11-08T00:48:55.297Z,2.80
2023-11-08T00:49:18.294Z,2.95
2023-11-08T00:49:42.442Z,2.80
2023-11-08T00:50:06.520Z,2.70
2023-11-08T00:50:30.679Z,2.72
2023-11-08T00:50:55.273Z,2.65
2023-11-08T00:51:17.987Z,2.50
2023-11-08T00:51:42.014Z,2.63
2023-11-08T00:52:07.371Z,2.60
2023-11-08T00:52:30.136Z,2.80
2023-11-08T00:52:54.997Z,3.05
2023-11-08T00:53:17.767Z,2.63
2023-11-08T00:53:41.436Z,2.65
2023-11-08T00:54:04.465Z,2.70
2023-11-08T00:54:27.359Z,2.70
2023-11-08T00:54:50.458Z,2.72
2023-11-08T00:55:13.315Z,2.90
2023-11-08T00:55:36.448Z,2.70
2023-11-08T00:56:01.492Z,2.55
2023-11-08T00:56:27.393Z,2.45
2023-11-08T00:56:51.562Z,2.63
2023-11-08T00:57:14.434Z,2.83
2023-11-08T00:57:39.981Z,2.45
2023-11-08T00:58:02.777Z,2.47
2023-11-08T00:58:28.107Z,2.30
2023-11-08T00:58:52.078Z,2.60
2023-11-08T00:59:14.994Z,2.80
2023-11-08T00:59:37.726Z,2.83
2023-11-08T01:00:02.638Z,2.88
2023-11-08T01:00:26.215Z,2.53
2023-11-08T01:00:50.474Z,2.70
2023-11-08T01:01:13.319Z,2.80
2023-11-08T01:01:39.098Z,3.08
2023-11-08T01:02:01.860Z,3.15
2023-11-08T01:02:27.594Z,3.17
2023-11-08T01:02:50.491Z,3.00
2023-11-08T01:03:14.541Z,3.05
2023-11-08T01:03:37.656Z,2.97
2023-11-08T01:04:02.453Z,2.90
2023-11-08T01:04:25.707Z,2.80
2023-11-08T01:04:49.327Z,2.92
2023-11-08T01:05:12.245Z,2.80
2023-11-08T01:05:35.003Z,2.88
2023-11-08T01:05:57.916Z,3.00
2023-11-08T01:06:21.141Z,3.08
2023-11-08T01:06:44.066Z,2.95
2023-11-08T01:07:07.734Z,3.08
2023-11-08T01:07:30.534Z,3.00
2023-11-08T01:07:53.276Z,2.80
2023-11-08T01:08:17.505Z,2.85
2023-11-08T01:08:40.326Z,3.03
2023-11-08T01:09:03.430Z,3.10
2023-11-08T01:09:26.535Z,2.88
2023-11-08T01:09:49.416Z,3.15
2023-11-08T01:10:12.291Z,2.97
2023-11-08T01:10:38.159Z,2.92
2023-11-08T01:11:02.615Z,2.95
2023-11-08T01:11:25.392Z,3.00
2023-11-08T01:11:48.102Z,3.10
2023-11-08T01:12:12.405Z,2.80
2023-11-08T01:12:35.257Z,2.88
2023-11-08T01:12:58.133Z,3.00
2023-11-08T01:13:22.093Z,3.28
2023-11-08T01:13:47.519Z,3.40
2023-11-08T01:14:10.485Z,3.03
2023-11-08T01:14:35.733Z,3.17
2023-11-08T01:14:58.462Z,3.10
2023-11-08T01:15:23.903Z,2.80
2023-11-08T01:15:46.991Z,2.97
2023-11-08T01:16:09.925Z,2.90
2023-11-08T01:16:32.748Z,3.30
2023-11-08T01:16:55.605Z,3.20
2023-11-08T01:17:18.598Z,3.40
2023-11-08T01:17:41.481Z,3.30
2023-11-08T01:18:05.025Z,3.20
2023-11-08T01:18:28.179Z,3.30
2023-11-08T01:18:51.292Z,3.03
2023-11-08T01:19:14.175Z,3.03
2023-11-08T01:19:37.579Z,2.97
2023-11-08T01:20:02.132Z,3.08
2023-11-08T01:20:24.903Z,3.25
2023-11-08T01:20:48.528Z,3.13
2023-11-08T01:21:11.319Z,3.10
2023-11-08T01:21:34.140Z,3.13
2023-11-08T01:21:56.912Z,2.75
2023-11-08T01:22:20.434Z,3.00
2023-11-08T01:22:43.179Z,3.30
2023-11-08T01:23:05.884Z,2.88
2023-11-08T01:23:28.570Z,2.83
2023-11-08T01:23:52.204Z,2.97
2023-11-08T01:24:15.387Z,2.97
2023-11-08T01:24:38.664Z,3.10
2023-11-08T01:25:01.469Z,3.08
2023-11-08T01:25:24.274Z,2.88
2023-11-08T01:25:48.356Z,3.10
2023-11-08T01:26:11.234Z,3.30
2023-11-08T01:26:36.122Z,3.17
2023-11-08T01:27:01.436Z,2.70
2023-11-08T01:27:25.705Z,3.30
2023-11-08T01:27:48.640Z,3.35
2023-11-08T01:28:12.402Z,3.55
2023-11-08T01:28:37.452Z,2.97
2023-11-08T01:29:00.685Z,2.90
2023-11-08T01:29:23.407Z,3.33
2023-11-08T01:29:46.197Z,3.58
2023-11-08T01:30:09.794Z,3.42
2023-11-08T01:30:32.723Z,3.15
2023-11-08T01:30:55.498Z,3.10
2023-11-08T01:31:18.346Z,3.10
2023-11-08T01:31:41.176Z,3.35
2023-11-08T01:32:06.532Z,3.22
2023-11-08T01:32:29.342Z,3.50
2023-11-08T01:32:52.188Z,3.35
2023-11-08T01:33:15.308Z,3.40
2023-11-08T01:33:38.209Z,3.30
2023-11-08T01:34:01.159Z,3.53
2023-11-08T01:34:24.673Z,3.70
2023-11-08T01:34:47.656Z,3.40
2023-11-08T01:35:10.567Z,3.50
2023-11-08T01:35:33.331Z,3.50
2023-11-08T01:35:56.049Z,3.60
2023-11-08T01:36:18.803Z,3.42
2023-11-08T01:36:41.626Z,3.35
2023-11-08T01:37:05.869Z,3.30
2023-11-08T01:37:28.583Z,3.30
2023-11-08T01:37:53.644Z,3.20
2023-11-08T01:38:16.494Z,3.13
2023-11-08T01:38:41.455Z,3.40
2023-11-08T01:39:04.422Z,3.40
2023-11-08T01:39:27.327Z,3.45
2023-11-08T01:39:50.175Z,3.20
2023-11-08T01:40:13.152Z,3.30
2023-11-08T01:40:37.347Z,3.30
2023-11-08T01:41:00.106Z,3.30
2023-11-08T01:41:22.974Z,3.35
2023-11-08T01:41:50.011Z,3.33
2023-11-08T01:42:12.834Z,3.28
2023-11-08T01:42:37.089Z,3.60
2023-11-08T01:43:00.100Z,3.45
2023-11-08T01:43:32.159Z,3.30
2023-11-08T01:43:55.044Z,3.70
2023-11-08T01:44:20.234Z,3.35
2023-11-08T01:44:42.999Z,3.63
2023-11-08T01:45:07.604Z,3.35
2023-11-08T01:45:30.456Z,3.20
2023-11-08T01:45:56.000Z,3.42
2023-11-08T01:46:22.407Z,3.70
2023-11-08T01:46:45.283Z,3.50
2023-11-08T01:47:10.497Z,3.45
2023-11-08T01:47:36.337Z,3.30
2023-11-08T01:47:59.829Z,3.50
2023-11-08T01:48:22.653Z,3.47
2023-11-08T01:48:47.986Z,3.45
2023-11-08T01:49:10.959Z,3.42
2023-11-08T01:49:36.229Z,3.17
2023-11-08T01:49:59.025Z,3.38
2023-11-08T01:50:24.429Z,3.40
2023-11-08T01:50:47.187Z,3.53
2023-11-08T01:51:13.588Z,3.40
2023-11-08T01:51:36.449Z,3.67
2023-11-08T01:52:01.561Z,3.95
2023-11-08T01:52:24.469Z,3.92
2023-11-08T01:52:49.486Z,3.88
2023-11-08T01:53:12.223Z,3.80
2023-11-08T01:53:41.066Z,3.83
2023-11-08T01:54:04.996Z,3.60
2023-11-08T01:54:29.200Z,3.60
2023-11-08T01:54:52.088Z,3.42
2023-11-08T01:55:14.819Z,3.78
2023-11-08T01:55:37.524Z,3.83
2023-11-08T01:56:00.267Z,3.70
2023-11-08T01:56:23.769Z,3.70
2023-11-08T01:56:46.970Z,3.70
2023-11-08T01:57:09.734Z,3.50
2023-11-08T01:57:33.366Z,3.47
2023-11-08T01:58:00.587Z,3.55
2023-11-08T01:58:23.299Z,3.83
2023-11-08T01:58:46.949Z,3.78
2023-11-08T01:59:12.564Z,3.78
2023-11-08T01:59:36.480Z,3.70
2023-11-08T01:59:59.238Z,3.83
2023-11-08T02:00:22.004Z,4.07
2023-11-08T02:00:44.856Z,3.80
2023-11-08T02:01:11.917Z,3.75
2023-11-08T02:01:34.762Z,3.50
2023-11-08T02:02:00.224Z,3.90
2023-11-08T02:02:23.657Z,4.15
2023-11-08T02:02:47.916Z,4.07
2023-11-08T02:03:10.963Z,3.80
2023-11-08T02:03:34.126Z,3.63
2023-11-08T02:03:57.091Z,3.80
2023-11-08T02:04:20.086Z,3.53
2023-11-08T02:04:43.185Z,3.60
2023-11-08T02:05:08.156Z,3.80
2023-11-08T02:05:31.207Z,3.70
2023-11-08T02:05:54.039Z,3.60
2023-11-08T02:06:17.399Z,4.00
2023-11-08T02:06:40.989Z,3.75
2023-11-08T02:07:03.958Z,3.83
2023-11-08T02:07:29.737Z,4.03
2023-11-08T02:07:52.472Z,3.75
2023-11-08T02:08:15.334Z,3.70
2023-11-08T02:08:39.604Z,3.70
2023-11-08T02:09:02.573Z,3.47
2023-11-08T02:09:27.879Z,3.70
2023-11-08T02:09:51.217Z,3.75
2023-11-08T02:10:15.887Z,3.90
2023-11-08T02:10:38.739Z,3.95
2023-11-08T02:11:03.890Z,3.88
2023-11-08T02:11:26.673Z,3.58
2023-11-08T02:11:51.938Z,3.97
2023-11-08T02:12:14.687Z,4.10
2023-11-08T02:12:41.650Z,3.90
2023-11-08T02:13:06.484Z,3.95
2023-11-08T02:13:29.285Z,4.20
2023-11-08T02:13:52.020Z,4.03
2023-11-08T02:14:14.870Z,4.18
2023-11-08T02:14:39.163Z,4.20
2023-11-08T02:15:04.833Z,4.00
2023-11-08T02:15:28.587Z,3.90
2023-11-08T02:15:51.564Z,4.10
2023-11-08T02:16:14.489Z,3.90
2023-11-08T02:16:39.384Z,3.97
2023-11-08T02:17:02.602Z,4.07
2023-11-08T02:17:25.395Z,4.13
2023-11-08T02:17:49.074Z,4.15
2023-11-08T02:18:12.359Z,4.05
2023-11-08T02:18:35.273Z,3.90
2023-11-08T02:18:58.267Z,4.20
2023-11-08T02:19:21.278Z,4.03
2023-11-08T02:19:44.042Z,4.22
2023-11-08T02:20:10.031Z,3.88
2023-11-08T02:20:32.958Z,3.95
2023-11-08T02:20:56.586Z,3.83
2023-11-08T02:21:19.613Z,4.00
2023-11-08T02:21:42.451Z,3.72
2023-11-08T02:22:05.714Z,3.83
2023-11-08T02:22:28.684Z,3.80
2023-11-08T02:22:51.667Z,4.03
2023-11-08T02:23:14.437Z,4.03
2023-11-08T02:23:37.841Z,3.78
2023-11-08T02:24:09.962Z,3.47
2023-11-08T02:24:32.876Z,3.80
2023-11-08T02:24:55.912Z,3.70
2023-11-08T02:25:18.747Z,3.90
2023-11-08T02:25:43.937Z,3.92
2023-11-08T02:26:06.726Z,3.67
2023-11-08T02:26:29.459Z,3.90
2023-11-08T02:26:52.310Z,3.70
2023-11-08T02:27:15.103Z,3.97
2023-11-08T02:27:37.885Z,3.72
2023-11-08T02:28:00.771Z,3.60
2023-11-08T02:28:23.555Z,3.67
2023-11-08T02:28:47.272Z,3.50
2023-11-08T02:29:10.037Z,3.40
2023-11-08T02:29:32.968Z,3.70
2023-11-08T02:29:55.711Z,4.18
2023-11-08T02:30:18.900Z,4.10
2023-11-08T02:30:41.889Z,4.07
2023-11-08T02:31:04.919Z,4.18
2023-11-08T02:31:27.737Z,4.05
2023-11-08T02:31:52.331Z,4.15
2023-11-08T02:32:15.392Z,3.97
2023-11-08T02:32:41.562Z,3.80
2023-11-08T02:33:04.706Z,3.83
2023-11-08T02:33:28.550Z,3.83
2023-11-08T02:33:51.445Z,4.03
2023-11-08T02:34:14.454Z,4.10
2023-11-08T02:34:37.349Z,4.10
2023-11-08T02:35:00.290Z,4.10
2023-11-08T02:35:23.138Z,4.18
2023-11-08T02:35:45.916Z,4.22
2023-11-08T02:36:08.805Z,3.83
2023-11-08T02:36:31.629Z,3.80
2023-11-08T02:36:55.244Z,3.75
2023-11-08T02:37:18.005Z,3.70
2023-11-08T02:37:40.760Z,3.70
2023-11-08T02:38:05.985Z,3.95
2023-11-08T02:38:29.334Z,3.83
2023-11-08T02:38:52.039Z,3.88
2023-11-08T02:39:16.322Z,4.20
2023-11-08T02:39:39.184Z,4.20
2023-11-08T02:40:02.032Z,4.20
2023-11-08T02:40:24.831Z,4.05
2023-11-08T02:40:47.642Z,4.20
2023-11-08T02:41:10.369Z,4.10
2023-11-08T02:41:33.641Z,4.07
2023-11-08T02:41:56.462Z,3.90
2023-11-08T02:42:19.848Z,4.00
2023-11-08T02:42:42.854Z,4.07
2023-11-08T02:43:05.692Z,4.10
2023-11-08T02:43:32.096Z,4.20
2023-11-08T02:43:54.923Z,4.28
2023-11-08T02:44:17.800Z,4.10
2023-11-08T02:44:40.606Z,4.35
2023-11-08T02:45:03.561Z,4.60
2023-11-08T02:45:26.640Z,4.63
2023-11-08T02:45:49.453Z,4.40
2023-11-08T02:46:12.563Z,4.20
2023-11-08T02:46:35.876Z,4.10
2023-11-08T02:46:58.670Z,4.30
2023-11-08T02:47:21.447Z,4.10
2023-11-08T02:47:44.274Z,4.10
2023-11-08T02:48:07.393Z,4.20
2023-11-08T02:48:30.291Z,4.60
2023-11-08T02:48:59.600Z,4.70
2023-11-08T02:49:22.553Z,4.55
2023-11-08T02:49:46.122Z,4.80
2023-11-08T02:50:09.988Z,4.43
2023-11-08T02:50:33.007Z,4.53
2023-11-08T02:50:58.002Z,4.72
2023-11-08T02:51:21.200Z,4.70
2023-11-08T02:51:46.212Z,4.82
2023-11-08T02:52:10.166Z,4.63
2023-11-08T02:52:33.580Z,4.93
2023-11-08T02:52:58.510Z,4.63
2023-11-08T02:53:21.881Z,4.50
2023-11-08T02:53:45.180Z,4.47
2023-11-08T02:54:11.208Z,4.63
2023-11-08T02:54:35.400Z,4.90
2023-11-08T02:54:58.140Z,5.00
2023-11-08T02:55:21.183Z,4.88
2023-11-08T02:55:43.886Z,4.60
2023-11-08T02:56:07.416Z,4.65
2023-11-08T02:56:30.351Z,4.70
2023-11-08T02:56:53.285Z,4.70
2023-11-08T02:57:17.367Z,4.85
2023-11-08T02:57:40.257Z,4.80
2023-11-08T02:58:03.089Z,4.75
2023-11-08T02:58:25.826Z,4.63
2023-11-08T02:58:52.076Z,4.47
2023-11-08T02:59:14.865Z,4.78
2023-11-08T02:59:39.809Z,5.03
2023-11-08T03:00:05.353Z,4.80
2023-11-08T03:00:28.138Z,5.05
2023-11-08T03:00:55.640Z,5.25
2023-11-08T03:01:18.636Z,4.63
2023-11-08T03:01:45.349Z,4.43
2023-11-08T03:02:08.505Z,4.85
2023-11-08T03:02:34.782Z,4.80
2023-11-08T03:02:59.347Z,4.90
2023-11-08T03:03:22.503Z,4.90
2023-11-08T03:03:45.284Z,5.00
2023-11-08T03:04:10.371Z,4.15
2023-11-08T03:04:33.189Z,4.53
2023-11-08T03:04:59.099Z,4.40
2023-11-08T03:05:25.233Z,4.60
2023-11-08T03:05:48.058Z,4.63
2023-11-08T03:06:13.224Z,4.63
2023-11-08T03:06:36.224Z,4.47
2023-11-08T03:07:02.208Z,4.68
2023-11-08T03:07:26.285Z,4.72
2023-11-08T03:07:49.494Z,4.63
2023-11-08T03:08:15.236Z,4.63
2023-11-08T03:08:38.949Z,4.97
2023-11-08T03:09:07.489Z,4.85
2023-11-08T03:09:30.215Z,4.90
2023-11-08T03:09:55.485Z,5.00
2023-11-08T03:10:19.176Z,5.05
2023-11-08T03:10:44.381Z,4.60
2023-11-08T03:11:07.143Z,4.60
2023-11-08T03:11:32.085Z,4.60
2023-11-08T03:11:58.661Z,4.97
2023-11-08T03:12:21.487Z,4.90
2023-11-08T03:12:44.385Z,4.32
2023-11-08T03:13:09.404Z,4.80
2023-11-08T03:13:33.682Z,4.80
2023-11-08T03:13:59.548Z,4.65
2023-11-08T03:14:22.388Z,4.80
2023-11-08T03:14:45.214Z,4.40
2023-11-08T03:15:11.974Z,4.60
2023-11-08T03:15:34.864Z,4.75
2023-11-08T03:15:58.288Z,4.55
2023-11-08T03:16:21.966Z,4.60
2023-11-08T03:16:46.896Z,4.80
2023-11-08T03:17:09.717Z,5.00
2023-11-08T03:17:34.993Z,4.75
2023-11-08T03:17:57.802Z,4.85
2023-11-08T03:18:23.008Z,4.90
2023-11-08T03:18:45.931Z,4.63
2023-11-08T03:19:11.678Z,4.70
2023-11-08T03:19:34.695Z,4.57
2023-11-08T03:20:00.503Z,4.97
2023-11-08T03:20:25.187Z,4.90
2023-11-08T03:20:48.560Z,4.70
2023-11-08T03:21:13.469Z,4.93
2023-11-08T03:21:36.319Z,4.95
2023-11-08T03:22:01.308Z,5.25
2023-11-08T03:22:24.161Z,4.82
2023-11-08T03:22:49.415Z,4.68
2023-11-08T03:23:12.138Z,4.47
2023-11-08T03:23:37.489Z,4.88
2023-11-08T03:24:02.281Z,4.70
2023-11-08T03:24:25.368Z,4.60
2023-11-08T03:24:48.170Z,4.78
2023-11-08T03:25:12.886Z,4.55
2023-11-08T03:25:35.718Z,4.50
2023-11-08T03:26:00.742Z,4.32
2023-11-08T03:26:23.549Z,4.40
2023-11-08T03:26:50.568Z,4.47
2023-11-08T03:27:13.547Z,5.03
2023-11-08T03:27:36.311Z,4.53
2023-11-08T03:28:01.566Z,4.53
2023-11-08T03:28:24.287Z,4.43
2023-11-08T03:28:47.085Z,4.72
2023-11-08T03:29:09.967Z,4.85
2023-11-08T03:29:32.752Z,4.95
2023-11-08T03:29:57.704Z,5.13
2023-11-08T03:30:21.120Z,5.57
2023-11-08T03:30:46.603Z,5.75
2023-11-08T03:31:10.294Z,5.53
2023-11-08T03:31:33.147Z,5.40
2023-11-08T03:31:58.410Z,5.88
2023-11-08T03:32:23.802Z,5.88
2023-11-08T03:32:47.315Z,5.90
2023-11-08T03:33:10.214Z,6.07
2023-11-08T03:33:34.700Z,6.20
2023-11-08T03:34:02.661Z,5.68
2023-11-08T03:34:27.851Z,6.20
2023-11-08T03:34:51.097Z,6.53
2023-11-08T03:35:16.543Z,6.53
2023-11-08T03:35:39.451Z,6.10
2023-11-08T03:36:04.677Z,5.80
2023-11-08T03:36:27.530Z,5.88
2023-11-08T03:36:52.503Z,5.90
2023-11-08T03:37:15.322Z,6.22
2023-11-08T03:37:40.743Z,6.30
2023-11-08T03:38:03.435Z,5.93
2023-11-08T03:38:29.251Z,5.50
2023-11-08T03:38:52.087Z,5.10
2023-11-08T03:39:17.368Z,5.00
2023-11-08T03:39:40.179Z,5.35
2023-11-08T03:40:06.934Z,5.68
2023-11-08T03:40:31.614Z,5.50
2023-11-08T03:40:54.512Z,5.32
2023-11-08T03:41:17.295Z,5.60
2023-11-08T03:41:42.276Z,6.00
2023-11-08T03:42:06.002Z,5.78
2023-11-08T03:42:28.834Z,5.72
2023-11-08T03:42:51.711Z,5.50
2023-11-08T03:43:16.961Z,5.20
2023-11-08T03:43:40.082Z,4.82
2023-11-08T03:44:05.112Z,5.10
2023-11-08T03:44:28.380Z,5.43
2023-11-08T03:44:51.112Z,5.10
2023-11-08T03:45:14.282Z,5.13
2023-11-08T03:45:37.417Z,5.20
2023-11-08T03:46:02.729Z,5.25
2023-11-08T03:46:25.477Z,5.93
2023-11-08T03:46:48.596Z,6.07
2023-11-08T03:47:13.583Z,5.97
2023-11-08T03:47:36.370Z,6.13
2023-11-08T03:48:02.194Z,6.13
2023-11-08T03:48:25.190Z,5.68
2023-11-08T03:48:53.040Z,6.10
2023-11-08T03:49:15.974Z,5.88
2023-11-08T03:49:41.322Z,5.40
2023-11-08T03:50:04.368Z,5.70
2023-11-08T03:50:27.082Z,5.60
2023-11-08T03:50:52.324Z,5.55
2023-11-08T03:51:15.109Z,5.55
2023-11-08T03:51:40.080Z,5.70
2023-11-08T03:52:03.747Z,5.30
2023-11-08T03:52:29.393Z,5.30
2023-11-08T03:52:52.130Z,5.53
2023-11-08T03:53:17.349Z,6.03
2023-11-08T03:53:40.061Z,5.90
2023-11-08T03:54:05.532Z,6.28
2023-11-08T03:54:28.443Z,5.72
2023-11-08T03:54:53.681Z,5.97
2023-11-08T03:55:16.583Z,6.03
2023-11-08T03:55:43.891Z,5.95
2023-11-08T03:56:07.858Z,5.95
2023-11-08T03:56:32.840Z,6.07
2023-11-08T03:56:55.667Z,6.30
2023-11-08T03:57:21.421Z,6.03
2023-11-08T03:57:44.265Z,6.43
2023-11-08T03:58:09.967Z,6.60
2023-11-08T03:58:32.666Z,6.15
2023-11-08T03:58:57.883Z,5.72
2023-11-08T03:59:20.656Z,5.90
2023-11-08T03:59:43.414Z,6.22
2023-11-08T04:00:10.002Z,6.38
2023-11-08T04:00:32.805Z,6.00
2023-11-08T04:00:56.023Z,6.13
2023-11-08T04:01:21.862Z,5.38
2023-11-08T04:01:45.492Z,6.22
2023-11-08T04:02:11.319Z,6.55
2023-11-08T04:02:34.179Z,6.22
2023-11-08T04:02:59.286Z,5.80
2023-11-08T04:03:22.185Z,6.45
2023-11-08T04:03:47.426Z,7.00
2023-11-08T04:04:10.408Z,6.72
2023-11-08T04:04:33.247Z,6.25
2023-11-08T04:04:56.565Z,7.30
2023-11-08T04:05:22.302Z,7.07
2023-11-08T04:05:45.252Z,7.40
2023-11-08T04:06:10.387Z,7.05
2023-11-08T04:06:33.253Z,7.07
2023-11-08T04:06:58.832Z,7.93
2023-11-08T04:07:21.926Z,7.20
2023-11-08T04:07:44.941Z,6.97
2023-11-08T04:08:08.616Z,6.95
2023-11-08T04:08:33.802Z,7.43
2023-11-08T04:08:58.341Z,7.28
2023-11-08T04:09:21.212Z,7.75
2023-11-08T04:09:46.321Z,7.10
2023-11-08T04:10:12.200Z,6.40
2023-11-08T04:10:35.158Z,6.70
2023-11-08T04:11:03.187Z,6.90
2023-11-08T04:11:26.341Z,6.95
2023-11-08T04:11:52.175Z,6.97
2023-11-08T04:12:15.007Z,6.40
2023-11-08T04:12:40.267Z,6.38
2023-11-08T04:13:03.252Z,6.90
2023-11-08T04:13:28.722Z,7.15
2023-11-08T04:13:51.568Z,7.00
2023-11-08T04:14:16.616Z,7.40
2023-11-08T04:14:39.570Z,6.88
2023-11-08T04:15:02.374Z,6.65
2023-11-08T04:15:25.243Z,6.50
2023-11-08T04:15:50.475Z,6.50
2023-11-08T04:16:13.345Z,6.53
2023-11-08T04:16:39.339Z,6.90
2023-11-08T04:17:02.047Z,6.78
2023-11-08T04:17:24.984Z,6.60
2023-11-08T04:17:47.738Z,7.03
2023-11-08T04:18:10.492Z,6.85
2023-11-08T04:18:35.706Z,6.60
2023-11-08T04:18:58.899Z,6.82
2023-11-08T04:19:24.129Z,6.88
2023-11-08T04:19:47.415Z,7.55
2023-11-08T04:20:11.606Z,7.28
2023-11-08T04:20:35.269Z,7.60
2023-11-08T04:21:00.317Z,7.30
2023-11-08T04:21:23.127Z,7.00
2023-11-08T04:21:48.464Z,7.20
2023-11-08T04:22:11.496Z,6.90
2023-11-08T04:22:34.285Z,6.82
2023-11-08T04:22:59.344Z,6.22
2023-11-08T04:23:22.121Z,6.57
2023-11-08T04:23:47.399Z,6.70
2023-11-08T04:24:10.289Z,6.60
2023-11-08T04:24:36.124Z,6.63
2023-11-08T04:24:58.922Z,6.20
2023-11-08T04:25:21.782Z,6.88
2023-11-08T04:25:46.017Z,6.43
2023-11-08T04:26:10.307Z,6.25
2023-11-08T04:26:34.151Z,7.10
2023-11-08T04:26:59.976Z,7.07
2023-11-08T04:27:23.107Z,7.25
2023-11-08T04:27:46.002Z,6.80
2023-11-08T04:28:08.827Z,6.95
2023-11-08T04:28:31.584Z,6.22
2023-11-08T04:28:59.355Z,6.20
2023-11-08T04:29:22.097Z,6.93
2023-11-08T04:29:47.412Z,6.90
2023-11-08T04:30:12.636Z,7.35
2023-11-08T04:30:35.466Z,6.95
2023-11-08T04:31:00.628Z,7.28
2023-11-08T04:31:23.752Z,6.88
2023-11-08T04:31:47.100Z,6.63
2023-11-08T04:32:09.936Z,6.82
2023-11-08T04:32:35.112Z,6.28
2023-11-08T04:32:57.983Z,6.63
2023-11-08T04:33:23.277Z,6.65
2023-11-08T04:33:46.240Z,6.50
2023-11-08T04:34:09.142Z,6.60
2023-11-08T04:34:31.930Z,6.78
2023-11-08T04:34:56.945Z,6.25
2023-11-08T04:35:19.818Z,6.32
2023-11-08T04:35:42.681Z,5.93
2023-11-08T04:36:09.211Z,6.55
2023-11-08T04:36:32.111Z,7.03
2023-11-08T04:36:55.063Z,6.63
2023-11-08T04:37:20.541Z,7.10
2023-11-08T04:37:44.212Z,7.07
2023-11-08T04:38:06.968Z,7.47
2023-11-08T04:38:32.220Z,7.03
2023-11-08T04:38:54.991Z,6.70
2023-11-08T04:39:21.067Z,6.80
2023-11-08T04:39:47.702Z,7.13
2023-11-08T04:40:12.681Z,7.50
2023-11-08T04:40:35.404Z,7.28
2023-11-08T04:41:01.158Z,6.72
2023-11-08T04:41:26.224Z,6.72
2023-11-08T04:41:49.314Z,7.18
2023-11-08T04:42:12.033Z,7.10
2023-11-08T04:42:37.356Z,7.13
2023-11-08T04:43:00.208Z,6.95
2023-11-08T04:43:25.296Z,7.22
2023-11-08T04:43:50.658Z,7.57
2023-11-08T04:44:13.486Z,6.95
2023-11-08T04:44:38.825Z,7.00
2023-11-08T04:45:01.571Z,7.43
2023-11-08T04:45:26.633Z,6.95
2023-11-08T04:45:49.475Z,7.28
2023-11-08T04:46:14.654Z,7.67
2023-11-08T04:46:37.553Z,7.38
2023-11-08T04:47:00.366Z,7.10
2023-11-08T04:47:23.119Z,6.90
2023-11-08T04:47:45.967Z,7.32
2023-11-08T04:48:11.284Z,7.38
2023-11-08T04:48:34.176Z,7.25
2023-11-08T04:49:00.157Z,7.30
2023-11-08T04:49:23.388Z,7.68
2023-11-08T04:49:49.348Z,7.50
2023-11-08T04:50:12.742Z,7.10
2023-11-08T04:50:35.493Z,7.68
2023-11-08T04:51:00.521Z,7.32
2023-11-08T04:51:23.340Z,7.40
2023-11-08T04:51:48.619Z,7.35
2023-11-08T04:52:14.398Z,7.40
2023-11-08T04:52:38.973Z,6.95
2023-11-08T04:53:03.953Z,6.82
2023-11-08T04:53:26.722Z,6.68
2023-11-08T04:53:49.509Z,7.07
2023-11-08T04:54:14.610Z,7.10
2023-11-08T04:54:44.226Z,6.55
2023-11-08T04:55:15.125Z,7.15
2023-11-08T04:55:39.118Z,7.10
2023-11-08T04:56:04.168Z,6.70
2023-11-08T04:56:28.357Z,6.72
2023-11-08T04:56:51.082Z,6.88
2023-11-08T04:57:17.734Z,6.85
2023-11-08T04:57:40.653Z,7.30
2023-11-08T04:58:03.539Z,6.97
2023-11-08T04:58:28.366Z,7.40
2023-11-08T04:58:51.140Z,7.40
2023-11-08T04:59:16.178Z,7.30
2023-11-08T04:59:39.081Z,7.50
2023-11-08T05:00:01.813Z,7.53
2023-11-08T05:00:24.561Z,7.25
2023-11-08T05:00:50.446Z,7.13
2023-11-08T05:01:13.363Z,7.50
2023-11-08T05:01:36.220Z,7.50
2023-11-08T05:02:00.237Z,6.82
2023-11-08T05:02:25.482Z,7.35
2023-11-08T05:02:48.297Z,7.10
2023-11-08T05:03:11.581Z,6.95
2023-11-08T05:03:36.638Z,7.05
2023-11-08T05:04:00.155Z,6.53
2023-11-08T05:04:25.658Z,6.88
2023-11-08T05:04:49.506Z,6.53
2023-11-08T05:05:15.404Z,7.10
2023-11-08T05:05:38.139Z,7.32
2023-11-08T05:06:00.889Z,7.28
2023-11-08T05:06:26.189Z,7.30
2023-11-08T05:06:49.332Z,6.90
2023-11-08T05:07:14.521Z,6.43
2023-11-08T05:07:37.555Z,6.40
2023-11-08T05:08:02.746Z,6.65
2023-11-08T05:08:25.560Z,6.60
2023-11-08T05:08:51.602Z,6.57
2023-11-08T05:09:16.867Z,7.15
2023-11-08T05:09:39.977Z,6.93
2023-11-08T05:10:05.278Z,6.80
2023-11-08T05:10:28.485Z,6.93
2023-11-08T05:10:53.791Z,7.10
2023-11-08T05:11:16.587Z,7.18
2023-11-08T05:11:41.319Z,7.43
2023-11-08T05:12:06.616Z,7.28
2023-11-08T05:12:30.193Z,7.32
2023-11-08T05:12:55.543Z,6.70
2023-11-08T05:13:18.412Z,6.47
2023-11-08T05:13:43.344Z,6.88
2023-11-08T05:14:06.663Z,6.80
2023-11-08T05:14:31.881Z,7.30
2023-11-08T05:14:54.657Z,6.75
2023-11-08T05:15:17.694Z,7.20
2023-11-08T05:15:40.996Z,7.15
2023-11-08T05:16:04.045Z,7.10
2023-11-08T05:16:29.336Z,7.40
2023-11-08T05:16:52.120Z,7.10
2023-11-08T05:17:18.111Z,7.20
2023-11-08T05:17:44.567Z,6.82